sensor_id;sensor_type;location;lat;lon;timestamp;temperature;humidity
59973;DHT22;55298;-36.624;-64.282;2022-11-15T00:01:19;22.90;33.80
59973;DHT22;55298;-36.624;-64.282;2022-11-15T00:03:51;22.90;33.60
59973;DHT22;55298;-36.624;-64.282;2022-11-15T00:06:21;22.90;33.70
59973;DHT22;55298;-36.624;-64.282;2022-11-15T00:08:49;22.80;33.90
59973;DHT22;55298;-36.624;-64.282;2022-11-15T00:11:17;22.80;33.90
59973;DHT22;55298;-36.624;-64.282;2022-11-15T00:13:46;22.80;34.10
59973;DHT22;55298;-36.624;-64.282;2022-11-15T00:16:16;22.80;34.50
59973;DHT22;55298;-36.624;-64.282;2022-11-15T00:18:45;22.80;34.10
59973;DHT22;55298;-36.624;-64.282;2022-11-15T00:21:14;22.80;34.50
59973;DHT22;55298;-36.624;-64.282;2022-11-15T00:23:43;22.70;34.40
59973;DHT22;55298;-36.624;-64.282;2022-11-15T00:26:16;22.70;34.50
59973;DHT22;55298;-36.624;-64.282;2022-11-15T00:28:46;22.70;34.40
59973;DHT22;55298;-36.624;-64.282;2022-11-15T00:31:15;22.70;34.70
59973;DHT22;55298;-36.624;-64.282;2022-11-15T00:33:44;22.60;34.50
59973;DHT22;55298;-36.624;-64.282;2022-11-15T00:36:12;22.50;34.90
59973;DHT22;55298;-36.624;-64.282;2022-11-15T00:38:40;22.50;35.00
59973;DHT22;55298;-36.624;-64.282;2022-11-15T00:41:09;22.50;35.70
59973;DHT22;55298;-36.624;-64.282;2022-11-15T00:43:40;22.40;35.50
59973;DHT22;55298;-36.624;-64.282;2022-11-15T00:46:10;22.40;35.80
59973;DHT22;55298;-36.624;-64.282;2022-11-15T00:48:38;22.30;36.30
59973;DHT22;55298;-36.624;-64.282;2022-11-15T00:51:05;22.30;36.80
59973;DHT22;55298;-36.624;-64.282;2022-11-15T00:53:33;22.30;36.50
59973;DHT22;55298;-36.624;-64.282;2022-11-15T00:56:01;22.20;36.20
59973;DHT22;55298;-36.624;-64.282;2022-11-15T00:58:30;22.20;36.90
59973;DHT22;55298;-36.624;-64.282;2022-11-15T01:01:06;22.10;37.40
59973;DHT22;55298;-36.624;-64.282;2022-11-15T01:03:36;22.10;37.70
59973;DHT22;55298;-36.624;-64.282;2022-11-15T01:06:04;22.00;38.80
59973;DHT22;55298;-36.624;-64.282;2022-11-15T01:08:34;21.90;38.40
59973;DHT22;55298;-36.624;-64.282;2022-11-15T01:11:04;21.90;39.00
59973;DHT22;55298;-36.624;-64.282;2022-11-15T01:13:36;21.90;39.10
59973;DHT22;55298;-36.624;-64.282;2022-11-15T01:16:24;21.80;39.00
59973;DHT22;55298;-36.624;-64.282;2022-11-15T01:18:52;21.80;38.60
59973;DHT22;55298;-36.624;-64.282;2022-11-15T01:21:22;21.70;38.50
59973;DHT22;55298;-36.624;-64.282;2022-11-15T01:23:54;21.70;38.30
59973;DHT22;55298;-36.624;-64.282;2022-11-15T01:26:24;21.70;38.50
59973;DHT22;55298;-36.624;-64.282;2022-11-15T01:28:51;21.60;38.40
59973;DHT22;55298;-36.624;-64.282;2022-11-15T01:31:21;21.50;38.30
59973;DHT22;55298;-36.624;-64.282;2022-11-15T01:33:49;21.50;39.40
59973;DHT22;55298;-36.624;-64.282;2022-11-15T01:36:20;21.40;39.50
59973;DHT22;55298;-36.624;-64.282;2022-11-15T01:38:58;21.30;39.70
59973;DHT22;55298;-36.624;-64.282;2022-11-15T01:41:29;21.30;39.30
59973;DHT22;55298;-36.624;-64.282;2022-11-15T01:46:57;21.30;39.60
59973;DHT22;55298;-36.624;-64.282;2022-11-15T01:49:27;21.30;39.60
59973;DHT22;55298;-36.624;-64.282;2022-11-15T01:52:00;21.30;39.40
59973;DHT22;55298;-36.624;-64.282;2022-11-15T01:54:28;21.20;39.60
59973;DHT22;55298;-36.624;-64.282;2022-11-15T01:57:01;21.20;39.60
59973;DHT22;55298;-36.624;-64.282;2022-11-15T01:59:29;21.10;39.60
59973;DHT22;55298;-36.624;-64.282;2022-11-15T02:01:59;21.10;40.50
59973;DHT22;55298;-36.624;-64.282;2022-11-15T02:04:34;21.10;40.30
59973;DHT22;55298;-36.624;-64.282;2022-11-15T02:07:05;21.10;41.80
59973;DHT22;55298;-36.624;-64.282;2022-11-15T02:09:37;21.00;40.80
59973;DHT22;55298;-36.624;-64.282;2022-11-15T02:12:07;21.00;41.80
59973;DHT22;55298;-36.624;-64.282;2022-11-15T02:14:38;20.90;41.80
59973;DHT22;55298;-36.624;-64.282;2022-11-15T02:17:22;20.80;41.10
59973;DHT22;55298;-36.624;-64.282;2022-11-15T02:28:48;20.70;42.20
59973;DHT22;55298;-36.624;-64.282;2022-11-15T02:37:31;20.50;42.00
59973;DHT22;55298;-36.624;-64.282;2022-11-15T02:43:09;20.40;41.50
59973;DHT22;55298;-36.624;-64.282;2022-11-15T02:45:50;20.30;42.00
59973;DHT22;55298;-36.624;-64.282;2022-11-15T02:48:22;20.30;43.10
59973;DHT22;55298;-36.624;-64.282;2022-11-15T02:50:51;20.30;42.30
59973;DHT22;55298;-36.624;-64.282;2022-11-15T02:53:23;20.30;42.20
59973;DHT22;55298;-36.624;-64.282;2022-11-15T02:55:55;20.20;44.50
59973;DHT22;55298;-36.624;-64.282;2022-11-15T02:58:56;20.10;45.70
59973;DHT22;55298;-36.624;-64.282;2022-11-15T03:01:38;20.10;43.60
59973;DHT22;55298;-36.624;-64.282;2022-11-15T03:04:39;20.10;44.50
59973;DHT22;55298;-36.624;-64.282;2022-11-15T03:07:16;20.00;44.60
59973;DHT22;55298;-36.624;-64.282;2022-11-15T03:09:56;19.90;46.40
59973;DHT22;55298;-36.624;-64.282;2022-11-15T03:12:40;19.90;48.50
59973;DHT22;55298;-36.624;-64.282;2022-11-15T03:15:23;19.80;48.50
59973;DHT22;55298;-36.624;-64.282;2022-11-15T03:20:37;19.70;47.70
59973;DHT22;55298;-36.624;-64.282;2022-11-15T03:23:08;19.60;46.90
59973;DHT22;55298;-36.624;-64.282;2022-11-15T03:25:43;19.60;46.90
59973;DHT22;55298;-36.624;-64.282;2022-11-15T03:28:17;19.50;46.60
59973;DHT22;55298;-36.624;-64.282;2022-11-15T03:30:48;19.50;47.90
59973;DHT22;55298;-36.624;-64.282;2022-11-15T03:33:20;19.40;47.00
59973;DHT22;55298;-36.624;-64.282;2022-11-15T03:35:48;19.40;49.00
59973;DHT22;55298;-36.624;-64.282;2022-11-15T03:38:24;19.30;48.80
59973;DHT22;55298;-36.624;-64.282;2022-11-15T03:41:03;19.20;48.70
59973;DHT22;55298;-36.624;-64.282;2022-11-15T03:43:54;19.10;48.80
59973;DHT22;55298;-36.624;-64.282;2022-11-15T03:46:31;19.00;49.20
59973;DHT22;55298;-36.624;-64.282;2022-11-15T03:49:08;19.00;49.30
59973;DHT22;55298;-36.624;-64.282;2022-11-15T03:51:37;19.00;48.20
59973;DHT22;55298;-36.624;-64.282;2022-11-15T03:54:05;18.90;47.70
59973;DHT22;55298;-36.624;-64.282;2022-11-15T03:56:34;18.90;47.30
59973;DHT22;55298;-36.624;-64.282;2022-11-15T03:59:03;18.90;47.90
59973;DHT22;55298;-36.624;-64.282;2022-11-15T04:01:30;18.90;47.60
59973;DHT22;55298;-36.624;-64.282;2022-11-15T04:03:59;18.80;48.60
59973;DHT22;55298;-36.624;-64.282;2022-11-15T04:06:30;18.80;47.90
59973;DHT22;55298;-36.624;-64.282;2022-11-15T04:08:58;18.80;49.20
59973;DHT22;55298;-36.624;-64.282;2022-11-15T04:11:26;18.80;49.30
59973;DHT22;55298;-36.624;-64.282;2022-11-15T04:13:55;18.70;48.80
59973;DHT22;55298;-36.624;-64.282;2022-11-15T04:16:23;18.70;49.90
59973;DHT22;55298;-36.624;-64.282;2022-11-15T04:18:51;18.70;50.60
59973;DHT22;55298;-36.624;-64.282;2022-11-15T04:21:29;18.60;50.80
59973;DHT22;55298;-36.624;-64.282;2022-11-15T04:24:07;18.60;50.30
59973;DHT22;55298;-36.624;-64.282;2022-11-15T04:26:39;18.60;51.00
59973;DHT22;55298;-36.624;-64.282;2022-11-15T04:29:06;18.50;51.50
59973;DHT22;55298;-36.624;-64.282;2022-11-15T04:31:45;18.50;51.80
59973;DHT22;55298;-36.624;-64.282;2022-11-15T04:34:13;18.50;51.60
59973;DHT22;55298;-36.624;-64.282;2022-11-15T04:36:42;18.50;51.40
59973;DHT22;55298;-36.624;-64.282;2022-11-15T04:39:18;18.40;51.30
59973;DHT22;55298;-36.624;-64.282;2022-11-15T04:41:47;18.40;51.40
59973;DHT22;55298;-36.624;-64.282;2022-11-15T04:44:14;18.30;50.90
59973;DHT22;55298;-36.624;-64.282;2022-11-15T04:46:43;18.40;50.50
59973;DHT22;55298;-36.624;-64.282;2022-11-15T04:49:12;18.30;51.50
59973;DHT22;55298;-36.624;-64.282;2022-11-15T04:51:41;18.30;52.50
59973;DHT22;55298;-36.624;-64.282;2022-11-15T04:54:08;18.20;52.30
59973;DHT22;55298;-36.624;-64.282;2022-11-15T04:56:38;18.20;53.10
59973;DHT22;55298;-36.624;-64.282;2022-11-15T04:59:05;18.20;52.90
59973;DHT22;55298;-36.624;-64.282;2022-11-15T05:01:33;18.10;53.10
59973;DHT22;55298;-36.624;-64.282;2022-11-15T05:04:01;18.00;54.10
59973;DHT22;55298;-36.624;-64.282;2022-11-15T05:06:39;18.00;54.70
59973;DHT22;55298;-36.624;-64.282;2022-11-15T05:09:08;17.90;55.20
59973;DHT22;55298;-36.624;-64.282;2022-11-15T05:11:35;17.80;55.40
59973;DHT22;55298;-36.624;-64.282;2022-11-15T05:14:04;17.80;55.00
59973;DHT22;55298;-36.624;-64.282;2022-11-15T05:16:31;17.70;55.50
59973;DHT22;55298;-36.624;-64.282;2022-11-15T05:19:00;17.70;55.50
59973;DHT22;55298;-36.624;-64.282;2022-11-15T05:21:27;17.60;55.90
59973;DHT22;55298;-36.624;-64.282;2022-11-15T05:23:57;17.60;56.70
59973;DHT22;55298;-36.624;-64.282;2022-11-15T05:26:26;17.60;56.50
59973;DHT22;55298;-36.624;-64.282;2022-11-15T05:28:56;17.50;56.70
59973;DHT22;55298;-36.624;-64.282;2022-11-15T05:31:24;17.50;57.40
59973;DHT22;55298;-36.624;-64.282;2022-11-15T05:33:55;17.40;56.70
59973;DHT22;55298;-36.624;-64.282;2022-11-15T05:36:31;17.40;57.60
59973;DHT22;55298;-36.624;-64.282;2022-11-15T05:39:02;17.40;57.70
59973;DHT22;55298;-36.624;-64.282;2022-11-15T05:41:39;17.30;58.20
59973;DHT22;55298;-36.624;-64.282;2022-11-15T05:44:10;17.30;58.60
59973;DHT22;55298;-36.624;-64.282;2022-11-15T05:46:40;17.20;58.60
59973;DHT22;55298;-36.624;-64.282;2022-11-15T05:49:12;17.20;58.60
59973;DHT22;55298;-36.624;-64.282;2022-11-15T05:51:42;17.20;58.60
59973;DHT22;55298;-36.624;-64.282;2022-11-15T05:54:12;17.10;58.70
59973;DHT22;55298;-36.624;-64.282;2022-11-15T05:56:39;17.10;58.50
59973;DHT22;55298;-36.624;-64.282;2022-11-15T05:59:09;17.00;59.00
59973;DHT22;55298;-36.624;-64.282;2022-11-15T06:01:39;17.00;59.70
59973;DHT22;55298;-36.624;-64.282;2022-11-15T06:04:11;16.90;59.60
59973;DHT22;55298;-36.624;-64.282;2022-11-15T06:06:39;16.90;59.90
59973;DHT22;55298;-36.624;-64.282;2022-11-15T06:09:06;16.80;59.40
59973;DHT22;55298;-36.624;-64.282;2022-11-15T06:11:35;16.80;60.50
59973;DHT22;55298;-36.624;-64.282;2022-11-15T06:14:03;16.70;60.50
59973;DHT22;55298;-36.624;-64.282;2022-11-15T06:16:32;16.70;59.40
59973;DHT22;55298;-36.624;-64.282;2022-11-15T06:18:59;16.70;59.80
59973;DHT22;55298;-36.624;-64.282;2022-11-15T06:21:28;16.70;59.50
59973;DHT22;55298;-36.624;-64.282;2022-11-15T06:23:55;16.70;59.80
59973;DHT22;55298;-36.624;-64.282;2022-11-15T06:26:22;16.70;60.10
59973;DHT22;55298;-36.624;-64.282;2022-11-15T06:28:50;16.80;59.40
59973;DHT22;55298;-36.624;-64.282;2022-11-15T06:31:19;16.80;60.50
59973;DHT22;55298;-36.624;-64.282;2022-11-15T06:33:47;16.80;60.40
59973;DHT22;55298;-36.624;-64.282;2022-11-15T06:36:16;16.80;59.70
59973;DHT22;55298;-36.624;-64.282;2022-11-15T06:38:45;16.80;60.60
59973;DHT22;55298;-36.624;-64.282;2022-11-15T06:41:14;16.80;59.70
59973;DHT22;55298;-36.624;-64.282;2022-11-15T06:43:43;16.90;58.70
59973;DHT22;55298;-36.624;-64.282;2022-11-15T06:46:12;16.90;59.10
59973;DHT22;55298;-36.624;-64.282;2022-11-15T06:48:40;16.90;58.20
59973;DHT22;55298;-36.624;-64.282;2022-11-15T06:51:07;17.00;58.70
59973;DHT22;55298;-36.624;-64.282;2022-11-15T06:53:36;17.00;59.10
59973;DHT22;55298;-36.624;-64.282;2022-11-15T06:56:05;17.00;59.70
59973;DHT22;55298;-36.624;-64.282;2022-11-15T06:58:34;17.00;58.70
59973;DHT22;55298;-36.624;-64.282;2022-11-15T07:01:10;17.00;58.10
59973;DHT22;55298;-36.624;-64.282;2022-11-15T07:03:42;17.10;58.10
59973;DHT22;55298;-36.624;-64.282;2022-11-15T07:06:10;17.10;58.10
59973;DHT22;55298;-36.624;-64.282;2022-11-15T07:08:39;17.20;57.10
59973;DHT22;55298;-36.624;-64.282;2022-11-15T07:11:08;17.10;58.10
59973;DHT22;55298;-36.624;-64.282;2022-11-15T07:13:37;17.10;59.50
59973;DHT22;55298;-36.624;-64.282;2022-11-15T07:16:07;17.10;60.00
59973;DHT22;55298;-36.624;-64.282;2022-11-15T07:18:39;17.10;59.80
59973;DHT22;55298;-36.624;-64.282;2022-11-15T07:21:09;17.00;60.10
59973;DHT22;55298;-36.624;-64.282;2022-11-15T07:23:39;17.00;59.80
59973;DHT22;55298;-36.624;-64.282;2022-11-15T07:26:07;17.00;61.40
59973;DHT22;55298;-36.624;-64.282;2022-11-15T07:28:36;16.90;63.00
59973;DHT22;55298;-36.624;-64.282;2022-11-15T07:31:06;16.90;63.00
59973;DHT22;55298;-36.624;-64.282;2022-11-15T07:33:35;16.70;64.80
59973;DHT22;55298;-36.624;-64.282;2022-11-15T07:36:05;16.50;65.40
59973;DHT22;55298;-36.624;-64.282;2022-11-15T07:38:35;16.50;65.60
59973;DHT22;55298;-36.624;-64.282;2022-11-15T07:41:04;16.40;65.30
59973;DHT22;55298;-36.624;-64.282;2022-11-15T07:43:33;16.20;67.00
59973;DHT22;55298;-36.624;-64.282;2022-11-15T07:46:07;16.30;67.90
59973;DHT22;55298;-36.624;-64.282;2022-11-15T07:48:37;16.10;66.30
59973;DHT22;55298;-36.624;-64.282;2022-11-15T07:51:07;16.10;65.20
59973;DHT22;55298;-36.624;-64.282;2022-11-15T07:53:36;16.00;65.50
59973;DHT22;55298;-36.624;-64.282;2022-11-15T07:56:05;16.10;66.70
59973;DHT22;55298;-36.624;-64.282;2022-11-15T07:58:34;16.10;68.00
59973;DHT22;55298;-36.624;-64.282;2022-11-15T08:01:05;16.10;69.00
59973;DHT22;55298;-36.624;-64.282;2022-11-15T08:03:36;16.20;68.40
59973;DHT22;55298;-36.624;-64.282;2022-11-15T08:06:03;16.00;69.70
59973;DHT22;55298;-36.624;-64.282;2022-11-15T08:08:32;16.00;70.20
59973;DHT22;55298;-36.624;-64.282;2022-11-15T08:11:01;16.00;70.10
59973;DHT22;55298;-36.624;-64.282;2022-11-15T08:13:29;16.00;69.50
59973;DHT22;55298;-36.624;-64.282;2022-11-15T08:16:00;16.00;69.20
59973;DHT22;55298;-36.624;-64.282;2022-11-15T08:18:31;16.00;69.00
59973;DHT22;55298;-36.624;-64.282;2022-11-15T08:21:01;16.00;68.80
59973;DHT22;55298;-36.624;-64.282;2022-11-15T08:23:29;16.10;68.60
59973;DHT22;55298;-36.624;-64.282;2022-11-15T08:26:03;16.00;70.30
59973;DHT22;55298;-36.624;-64.282;2022-11-15T08:28:33;16.00;71.60
59973;DHT22;55298;-36.624;-64.282;2022-11-15T08:31:00;16.00;72.80
59973;DHT22;55298;-36.624;-64.282;2022-11-15T08:33:30;15.90;73.80
59973;DHT22;55298;-36.624;-64.282;2022-11-15T08:35:59;15.90;74.60
59973;DHT22;55298;-36.624;-64.282;2022-11-15T08:38:28;15.80;74.10
59973;DHT22;55298;-36.624;-64.282;2022-11-15T08:41:02;15.80;73.70
59973;DHT22;55298;-36.624;-64.282;2022-11-15T08:43:31;15.80;74.20
59973;DHT22;55298;-36.624;-64.282;2022-11-15T08:45:59;15.80;74.70
59973;DHT22;55298;-36.624;-64.282;2022-11-15T08:48:26;15.80;75.00
59973;DHT22;55298;-36.624;-64.282;2022-11-15T08:50:55;15.80;76.00
59973;DHT22;55298;-36.624;-64.282;2022-11-15T08:53:24;15.70;75.10
59973;DHT22;55298;-36.624;-64.282;2022-11-15T08:55:52;15.70;74.60
59973;DHT22;55298;-36.624;-64.282;2022-11-15T08:58:20;15.70;74.10
59973;DHT22;55298;-36.624;-64.282;2022-11-15T09:00:47;15.70;74.40
59973;DHT22;55298;-36.624;-64.282;2022-11-15T09:03:17;15.80;73.10
59973;DHT22;55298;-36.624;-64.282;2022-11-15T09:05:45;15.70;72.30
59973;DHT22;55298;-36.624;-64.282;2022-11-15T09:08:12;15.80;72.30
59973;DHT22;55298;-36.624;-64.282;2022-11-15T09:10:41;15.80;73.40
59973;DHT22;55298;-36.624;-64.282;2022-11-15T09:13:09;15.90;73.40
59973;DHT22;55298;-36.624;-64.282;2022-11-15T09:15:37;16.00;73.10
59973;DHT22;55298;-36.624;-64.282;2022-11-15T09:18:05;16.00;72.80
59973;DHT22;55298;-36.624;-64.282;2022-11-15T09:20:34;16.10;71.10
59973;DHT22;55298;-36.624;-64.282;2022-11-15T09:23:02;16.20;71.20
59973;DHT22;55298;-36.624;-64.282;2022-11-15T09:25:30;16.20;71.80
59973;DHT22;55298;-36.624;-64.282;2022-11-15T09:27:59;16.30;71.10
59973;DHT22;55298;-36.624;-64.282;2022-11-15T09:30:26;16.40;70.80
59973;DHT22;55298;-36.624;-64.282;2022-11-15T09:32:55;16.60;69.90
59973;DHT22;55298;-36.624;-64.282;2022-11-15T09:35:22;16.60;69.90
59973;DHT22;55298;-36.624;-64.282;2022-11-15T09:37:49;16.70;70.80
59973;DHT22;55298;-36.624;-64.282;2022-11-15T09:40:19;16.70;70.50
59973;DHT22;55298;-36.624;-64.282;2022-11-15T09:46:03;16.90;70.80
59973;DHT22;55298;-36.624;-64.282;2022-11-15T09:48:48;17.00;70.00
59973;DHT22;55298;-36.624;-64.282;2022-11-15T09:51:40;17.00;69.90
59973;DHT22;55298;-36.624;-64.282;2022-11-15T09:54:33;17.20;69.60
59973;DHT22;55298;-36.624;-64.282;2022-11-15T09:57:14;17.30;68.90
59973;DHT22;55298;-36.624;-64.282;2022-11-15T09:59:58;17.40;69.70
59973;DHT22;55298;-36.624;-64.282;2022-11-15T10:05:31;17.60;68.30
59973;DHT22;55298;-36.624;-64.282;2022-11-15T10:08:16;17.70;68.60
59973;DHT22;55298;-36.624;-64.282;2022-11-15T10:11:03;17.80;69.20
59973;DHT22;55298;-36.624;-64.282;2022-11-15T10:13:40;17.90;69.10
59973;DHT22;55298;-36.624;-64.282;2022-11-15T10:20:02;18.20;68.50
59973;DHT22;55298;-36.624;-64.282;2022-11-15T10:22:51;18.40;67.00
59973;DHT22;55298;-36.624;-64.282;2022-11-15T10:25:28;18.70;65.90
59973;DHT22;55298;-36.624;-64.282;2022-11-15T10:28:25;18.80;65.90
59973;DHT22;55298;-36.624;-64.282;2022-11-15T10:31:00;19.10;63.90
59973;DHT22;55298;-36.624;-64.282;2022-11-15T10:33:36;19.40;62.60
59973;DHT22;55298;-36.624;-64.282;2022-11-15T10:36:21;19.50;61.80
59973;DHT22;55298;-36.624;-64.282;2022-11-15T10:38:56;19.70;61.90
59973;DHT22;55298;-36.624;-64.282;2022-11-15T10:41:35;19.70;61.70
59973;DHT22;55298;-36.624;-64.282;2022-11-15T10:47:06;20.80;59.20
59973;DHT22;55298;-36.624;-64.282;2022-11-15T10:50:11;22.10;56.90
59973;DHT22;55298;-36.624;-64.282;2022-11-15T10:52:53;23.80;51.10
59973;DHT22;55298;-36.624;-64.282;2022-11-15T10:55:25;25.10;47.00
59973;DHT22;55298;-36.624;-64.282;2022-11-15T10:58:05;25.90;44.30
59973;DHT22;55298;-36.624;-64.282;2022-11-15T11:00:36;26.50;41.90
59973;DHT22;55298;-36.624;-64.282;2022-11-15T11:03:18;27.30;41.60
59973;DHT22;55298;-36.624;-64.282;2022-11-15T11:05:49;28.00;39.70
59973;DHT22;55298;-36.624;-64.282;2022-11-15T11:08:53;28.70;38.20
59973;DHT22;55298;-36.624;-64.282;2022-11-15T11:11:22;28.90;36.00
59973;DHT22;55298;-36.624;-64.282;2022-11-15T11:13:54;29.20;36.10
59973;DHT22;55298;-36.624;-64.282;2022-11-15T11:16:34;29.60;35.20
59973;DHT22;55298;-36.624;-64.282;2022-11-15T11:33:58;31.20;30.90
59973;DHT22;55298;-36.624;-64.282;2022-11-15T11:36:50;31.30;30.50
59973;DHT22;55298;-36.624;-64.282;2022-11-15T11:42:24;31.20;30.50
59973;DHT22;55298;-36.624;-64.282;2022-11-15T11:45:15;31.10;30.80
59973;DHT22;55298;-36.624;-64.282;2022-11-15T11:50:37;31.60;31.40
59973;DHT22;55298;-36.624;-64.282;2022-11-15T11:53:27;32.00;30.20
59973;DHT22;55298;-36.624;-64.282;2022-11-15T11:56:02;32.40;29.20
59973;DHT22;55298;-36.624;-64.282;2022-11-15T11:58:41;32.40;29.20
59973;DHT22;55298;-36.624;-64.282;2022-11-15T12:01:24;32.50;29.10
59973;DHT22;55298;-36.624;-64.282;2022-11-15T12:06:50;33.50;28.80
59973;DHT22;55298;-36.624;-64.282;2022-11-15T12:09:41;33.80;29.20
59973;DHT22;55298;-36.624;-64.282;2022-11-15T12:12:25;34.00;27.90
59973;DHT22;55298;-36.624;-64.282;2022-11-15T12:15:00;34.30;28.20
59973;DHT22;55298;-36.624;-64.282;2022-11-15T12:17:31;34.70;28.20
59973;DHT22;55298;-36.624;-64.282;2022-11-15T12:20:04;34.90;27.70
59973;DHT22;55298;-36.624;-64.282;2022-11-15T12:22:43;35.00;27.50
59973;DHT22;55298;-36.624;-64.282;2022-11-15T12:25:31;34.70;27.50
59973;DHT22;55298;-36.624;-64.282;2022-11-15T12:28:17;34.80;28.70
59973;DHT22;55298;-36.624;-64.282;2022-11-15T12:30:56;35.10;28.00
59973;DHT22;55298;-36.624;-64.282;2022-11-15T12:33:43;35.60;26.20
59973;DHT22;55298;-36.624;-64.282;2022-11-15T12:39:11;36.40;27.00
59973;DHT22;55298;-36.624;-64.282;2022-11-15T12:44:58;36.80;25.80
59973;DHT22;55298;-36.624;-64.282;2022-11-15T12:47:26;36.80;25.50
59973;DHT22;55298;-36.624;-64.282;2022-11-15T12:49:55;36.70;25.40
59973;DHT22;55298;-36.624;-64.282;2022-11-15T12:52:24;37.00;26.40
59973;DHT22;55298;-36.624;-64.282;2022-11-15T12:54:56;37.50;25.70
59973;DHT22;55298;-36.624;-64.282;2022-11-15T12:57:33;37.70;24.60
59973;DHT22;55298;-36.624;-64.282;2022-11-15T13:03:18;37.30;23.10
59973;DHT22;55298;-36.624;-64.282;2022-11-15T13:05:56;37.30;24.50
59973;DHT22;55298;-36.624;-64.282;2022-11-15T13:08:42;37.60;25.40
59973;DHT22;55298;-36.624;-64.282;2022-11-15T13:14:00;38.30;23.30
59973;DHT22;55298;-36.624;-64.282;2022-11-15T13:16:29;38.60;23.00
59973;DHT22;55298;-36.624;-64.282;2022-11-15T13:19:05;38.80;24.40
59973;DHT22;55298;-36.624;-64.282;2022-11-15T13:21:34;39.10;23.30
59973;DHT22;55298;-36.624;-64.282;2022-11-15T13:24:39;39.10;21.60
59973;DHT22;55298;-36.624;-64.282;2022-11-15T13:27:18;38.90;23.20
59973;DHT22;55298;-36.624;-64.282;2022-11-15T13:29:46;38.90;21.60
59973;DHT22;55298;-36.624;-64.282;2022-11-15T13:32:18;39.00;21.70
59973;DHT22;55298;-36.624;-64.282;2022-11-15T13:34:48;39.10;22.50
59973;DHT22;55298;-36.624;-64.282;2022-11-15T13:37:31;39.00;22.30
59973;DHT22;55298;-36.624;-64.282;2022-11-15T13:40:18;39.00;21.90
59973;DHT22;55298;-36.624;-64.282;2022-11-15T13:42:48;39.30;21.60
59973;DHT22;55298;-36.624;-64.282;2022-11-15T13:45:20;39.30;21.10
59973;DHT22;55298;-36.624;-64.282;2022-11-15T13:47:58;39.00;20.80
59973;DHT22;55298;-36.624;-64.282;2022-11-15T13:50:32;38.90;21.70
59973;DHT22;55298;-36.624;-64.282;2022-11-15T13:53:03;38.90;21.60
59973;DHT22;55298;-36.624;-64.282;2022-11-15T13:55:33;39.00;21.50
59973;DHT22;55298;-36.624;-64.282;2022-11-15T13:58:04;39.00;22.20
59973;DHT22;55298;-36.624;-64.282;2022-11-15T14:00:43;38.90;22.00
59973;DHT22;55298;-36.624;-64.282;2022-11-15T14:03:24;38.70;22.30
59973;DHT22;55298;-36.624;-64.282;2022-11-15T14:06:07;38.60;21.70
59973;DHT22;55298;-36.624;-64.282;2022-11-15T14:08:41;38.60;22.30
59973;DHT22;55298;-36.624;-64.282;2022-11-15T14:11:18;39.00;22.80
59973;DHT22;55298;-36.624;-64.282;2022-11-15T14:16:41;39.40;21.00
59973;DHT22;55298;-36.624;-64.282;2022-11-15T14:19:37;39.60;20.60
59973;DHT22;55298;-36.624;-64.282;2022-11-15T14:22:24;39.40;20.40
59973;DHT22;55298;-36.624;-64.282;2022-11-15T14:27:44;38.90;20.80
59973;DHT22;55298;-36.624;-64.282;2022-11-15T14:30:16;38.80;21.70
59973;DHT22;55298;-36.624;-64.282;2022-11-15T14:32:50;38.80;21.40
59973;DHT22;55298;-36.624;-64.282;2022-11-15T14:35:22;38.70;21.10
59973;DHT22;55298;-36.624;-64.282;2022-11-15T14:37:55;38.60;21.00
59973;DHT22;55298;-36.624;-64.282;2022-11-15T14:40:24;38.70;21.10
59973;DHT22;55298;-36.624;-64.282;2022-11-15T14:42:53;38.80;21.80
59973;DHT22;55298;-36.624;-64.282;2022-11-15T14:45:22;38.60;21.00
59973;DHT22;55298;-36.624;-64.282;2022-11-15T14:47:50;38.60;21.70
59973;DHT22;55298;-36.624;-64.282;2022-11-15T14:50:21;38.70;20.40
59973;DHT22;55298;-36.624;-64.282;2022-11-15T14:52:50;38.70;20.20
59973;DHT22;55298;-36.624;-64.282;2022-11-15T14:55:28;38.50;20.90
59973;DHT22;55298;-36.624;-64.282;2022-11-15T14:58:02;38.40;20.70
59973;DHT22;55298;-36.624;-64.282;2022-11-15T15:00:34;38.30;21.40
59973;DHT22;55298;-36.624;-64.282;2022-11-15T15:03:05;38.30;21.30
59973;DHT22;55298;-36.624;-64.282;2022-11-15T15:05:35;38.40;20.80
59973;DHT22;55298;-36.624;-64.282;2022-11-15T15:08:05;38.30;21.40
59973;DHT22;55298;-36.624;-64.282;2022-11-15T15:10:36;38.20;20.70
59973;DHT22;55298;-36.624;-64.282;2022-11-15T15:13:12;38.10;20.50
59973;DHT22;55298;-36.624;-64.282;2022-11-15T15:15:45;38.00;21.50
59973;DHT22;55298;-36.624;-64.282;2022-11-15T15:18:15;38.10;21.70
59973;DHT22;55298;-36.624;-64.282;2022-11-15T15:20:44;38.20;21.50
59973;DHT22;55298;-36.624;-64.282;2022-11-15T15:23:17;38.10;21.20
59973;DHT22;55298;-36.624;-64.282;2022-11-15T15:25:45;38.20;21.20
59973;DHT22;55298;-36.624;-64.282;2022-11-15T15:28:17;38.00;21.30
59973;DHT22;55298;-36.624;-64.282;2022-11-15T15:30:47;37.70;21.30
59973;DHT22;55298;-36.624;-64.282;2022-11-15T15:33:17;37.20;21.80
59973;DHT22;55298;-36.624;-64.282;2022-11-15T15:35:45;36.70;21.70
59973;DHT22;55298;-36.624;-64.282;2022-11-15T15:38:16;35.90;22.50
59973;DHT22;55298;-36.624;-64.282;2022-11-15T15:40:43;35.30;23.30
59973;DHT22;55298;-36.624;-64.282;2022-11-15T15:43:13;34.70;23.50
59973;DHT22;55298;-36.624;-64.282;2022-11-15T15:45:43;34.50;24.30
59973;DHT22;55298;-36.624;-64.282;2022-11-15T15:48:15;34.20;24.10
59973;DHT22;55298;-36.624;-64.282;2022-11-15T15:50:48;34.40;24.30
59973;DHT22;55298;-36.624;-64.282;2022-11-15T15:53:20;34.80;24.60
59973;DHT22;55298;-36.624;-64.282;2022-11-15T15:55:50;34.90;23.70
59973;DHT22;55298;-36.624;-64.282;2022-11-15T15:58:20;35.00;24.00
59973;DHT22;55298;-36.624;-64.282;2022-11-15T16:00:54;35.10;24.00
59973;DHT22;55298;-36.624;-64.282;2022-11-15T16:03:23;35.10;23.10
59973;DHT22;55298;-36.624;-64.282;2022-11-15T16:05:52;35.20;23.30
59973;DHT22;55298;-36.624;-64.282;2022-11-15T16:08:24;35.30;23.60
59973;DHT22;55298;-36.624;-64.282;2022-11-15T16:10:53;35.50;23.90
59973;DHT22;55298;-36.624;-64.282;2022-11-15T16:13:23;35.70;23.60
59973;DHT22;55298;-36.624;-64.282;2022-11-15T16:15:53;35.80;22.90
59973;DHT22;55298;-36.624;-64.282;2022-11-15T16:18:23;35.20;22.10
59973;DHT22;55298;-36.624;-64.282;2022-11-15T16:20:53;34.50;23.70
59973;DHT22;55298;-36.624;-64.282;2022-11-15T16:23:27;34.00;23.90
59973;DHT22;55298;-36.624;-64.282;2022-11-15T16:26:06;33.70;24.20
59973;DHT22;55298;-36.624;-64.282;2022-11-15T16:28:46;33.50;24.40
59973;DHT22;55298;-36.624;-64.282;2022-11-15T16:31:15;33.40;24.70
59973;DHT22;55298;-36.624;-64.282;2022-11-15T16:33:45;33.40;24.60
59973;DHT22;55298;-36.624;-64.282;2022-11-15T16:36:33;33.10;24.60
59973;DHT22;55298;-36.624;-64.282;2022-11-15T16:39:02;33.00;25.20